createdAt,value
2019-01-20T00:01:17.498Z,96.62
2019-01-20T00:03:48.085Z,96.91
2019-01-20T00:06:18.766Z,96.84
2019-01-20T00:08:49.290Z,97.10
2019-01-20T00:11:19.730Z,97.34
2019-01-20T00:13:50.367Z,97.00
2019-01-20T00:16:20.948Z,96.94
2019-01-20T00:18:51.569Z,97.05
2019-01-20T00:21:22.246Z,97.12
2019-01-20T00:23:52.717Z,97.40
2019-01-20T00:26:23.299Z,97.28
2019-01-20T00:28:53.871Z,97.31
2019-01-20T00:31:24.435Z,97.09
2019-01-20T00:33:54.880Z,97.36
2019-01-20T00:36:25.603Z,97.43
2019-01-20T00:38:56.139Z,97.77
2019-01-20T00:41:26.672Z,97.70
2019-01-20T00:43:57.297Z,97.92
2019-01-20T00:46:27.733Z,97.68
2019-01-20T00:48:58.234Z,97.76
2019-01-20T00:51:29.099Z,97.65
2019-01-20T00:53:59.828Z,97.93
2019-01-20T00:56:30.426Z,97.85
2019-01-20T00:59:01.037Z,97.94
2019-01-20T01:01:31.683Z,98.21
2019-01-20T01:04:02.255Z,97.95
2019-01-20T01:06:32.903Z,98.32
2019-01-20T01:09:03.618Z,98.54
2019-01-20T01:11:34.323Z,98.83
2019-01-20T01:14:04.962Z,98.86
2019-01-20T01:16:35.591Z,98.99
2019-01-20T01:19:06.195Z,99.08
2019-01-20T01:21:37.801Z,98.78
2019-01-20T01:24:08.260Z,98.74
2019-01-20T01:26:38.868Z,98.78
2019-01-20T01:29:09.317Z,98.70
2019-01-20T01:31:39.990Z,98.91
2019-01-20T01:34:10.566Z,98.82
2019-01-20T01:36:41.189Z,98.58
2019-01-20T01:39:11.752Z,98.62
2019-01-20T01:41:42.277Z,98.81
2019-01-20T01:44:12.809Z,98.68
2019-01-20T01:46:43.345Z,98.87
2019-01-20T01:49:13.903Z,98.99
2019-01-20T01:51:44.567Z,99.07
2019-01-20T01:54:15.132Z,99.12
2019-01-20T01:56:45.656Z,98.92
2019-01-20T01:59:16.648Z,98.82
2019-01-20T02:01:47.355Z,98.97
2019-01-20T02:04:17.844Z,99.03
2019-01-20T02:06:48.886Z,98.91
2019-01-20T02:09:19.470Z,99.45
2019-01-20T02:11:50.186Z,99.42
2019-01-20T02:14:20.696Z,99.49
2019-01-20T02:16:51.313Z,99.50
2019-01-20T02:19:21.959Z,99.56
2019-01-20T02:21:52.479Z,99.69
2019-01-20T02:24:22.947Z,99.88
2019-01-20T02:26:53.543Z,100.00
2019-01-20T02:29:24.030Z,100.00
2019-01-20T02:31:54.641Z,100.00
2019-01-20T02:34:25.230Z,99.89
2019-01-20T02:36:55.744Z,99.90
2019-01-20T02:39:26.241Z,99.58
2019-01-20T02:41:56.881Z,99.54
2019-01-20T02:44:27.510Z,99.27
2019-01-20T02:46:58.032Z,99.46
2019-01-20T02:49:28.639Z,99.53
2019-01-20T02:51:59.080Z,99.47
2019-01-20T02:54:29.702Z,99.41
2019-01-20T02:57:00.223Z,99.72
2019-01-20T02:59:30.751Z,99.49
2019-01-20T03:02:01.278Z,99.48
2019-01-20T03:04:31.797Z,99.29
2019-01-20T03:07:02.465Z,99.24
2019-01-20T03:09:33.055Z,99.15
2019-01-20T03:12:03.883Z,99.50
2019-01-20T03:14:34.415Z,99.85
2019-01-20T03:17:04.949Z,99.92
2019-01-20T03:19:35.496Z,100.00
2019-01-20T03:22:06.591Z,99.93
2019-01-20T03:24:37.060Z,99.80
2019-01-20T03:27:07.765Z,99.64
2019-01-20T03:29:38.278Z,99.47
2019-01-20T03:32:08.688Z,99.28
2019-01-20T03:34:39.085Z,99.47
2019-01-20T03:37:09.612Z,99.44
2019-01-20T03:39:40.139Z,99.38
2019-01-20T03:42:12.078Z,99.32
2019-01-20T03:44:42.943Z,99.20
2019-01-20T03:47:13.475Z,99.10
2019-01-20T03:49:44.032Z,98.98
2019-01-20T03:52:16.372Z,98.93
2019-01-20T03:54:46.907Z,98.64
2019-01-20T03:57:17.438Z,98.69
2019-01-20T03:59:48.007Z,98.64
2019-01-20T04:02:20.252Z,98.47
2019-01-20T04:04:50.771Z,98.21
2019-01-20T04:07:21.249Z,98.25
2019-01-20T04:09:51.892Z,98.03
2019-01-20T04:12:22.469Z,98.02
2019-01-20T04:14:52.888Z,98.14
2019-01-20T04:17:23.399Z,98.17
2019-01-20T04:19:53.813Z,98.14
2019-01-20T04:22:24.380Z,98.03
2019-01-20T04:24:54.910Z,97.72
2019-01-20T04:27:25.350Z,97.19
2019-01-20T04:29:55.926Z,97.34
2019-01-20T04:32:26.612Z,97.20
2019-01-20T04:34:57.102Z,97.07
2019-01-20T04:37:27.565Z,96.84
2019-01-20T04:39:58.012Z,96.92
2019-01-20T04:42:29.246Z,96.83
2019-01-20T04:44:59.781Z,96.42
2019-01-20T04:47:30.227Z,96.78
2019-01-20T04:50:00.708Z,96.60
2019-01-20T04:52:31.135Z,96.65
2019-01-20T04:55:01.613Z,96.69
2019-01-20T04:57:32.247Z,96.30
2019-01-20T05:00:02.945Z,96.58
2019-01-20T05:02:33.353Z,96.23
2019-01-20T05:05:03.730Z,96.31
2019-01-20T05:07:34.295Z,96.32
2019-01-20T05:10:05.965Z,96.11
2019-01-20T05:12:37.844Z,96.15
2019-01-20T05:15:12.103Z,95.82
2019-01-20T05:17:42.597Z,95.62
2019-01-20T05:20:13.318Z,95.46
2019-01-20T05:22:45.257Z,95.04
2019-01-20T05:25:15.967Z,95.52
2019-01-20T05:27:46.624Z,95.38
2019-01-20T05:30:20.256Z,95.67
2019-01-20T05:32:50.803Z,95.62
2019-01-20T05:35:21.508Z,95.09
2019-01-20T05:37:52.107Z,94.74
2019-01-20T05:40:23.403Z,94.87
2019-01-20T05:42:53.936Z,95.12
2019-01-20T05:45:26.699Z,94.80
2019-01-20T05:47:57.167Z,94.53
2019-01-20T05:50:27.655Z,94.29
2019-01-20T05:52:58.089Z,94.14
2019-01-20T05:55:28.585Z,94.34
2019-01-20T05:57:59.046Z,94.39
2019-01-20T06:00:32.607Z,94.58
2019-01-20T06:03:03.101Z,94.63
2019-01-20T06:05:33.729Z,95.07
2019-01-20T06:08:04.218Z,94.74
2019-01-20T06:10:34.797Z,94.94
2019-01-20T06:13:05.474Z,94.81
2019-01-20T06:15:36.001Z,94.55
2019-01-20T06:18:06.685Z,94.99
2019-01-20T06:20:37.243Z,95.23
2019-01-20T06:23:07.795Z,95.01
2019-01-20T06:25:38.222Z,94.90
2019-01-20T06:28:08.747Z,95.30
2019-01-20T06:30:40.337Z,95.31
2019-01-20T06:33:10.784Z,95.64
2019-01-20T06:35:41.469Z,95.80
2019-01-20T06:38:12.040Z,96.11
2019-01-20T06:41:01.547Z,95.97
2019-01-20T06:43:43.923Z,95.98
2019-01-20T06:46:14.557Z,95.78
2019-01-20T06:48:45.063Z,95.99
2019-01-20T06:51:15.680Z,96.18
2019-01-20T06:53:46.142Z,96.06
2019-01-20T06:56:17.625Z,96.15
2019-01-20T06:58:48.186Z,96.03
2019-01-20T07:01:18.711Z,96.28
2019-01-20T07:03:49.274Z,96.28
2019-01-20T07:06:19.660Z,96.37
2019-01-20T07:08:50.300Z,96.30
2019-01-20T07:11:20.840Z,96.29
2019-01-20T07:13:51.263Z,96.31
2019-01-20T07:16:21.778Z,96.22
2019-01-20T07:18:52.378Z,96.09
2019-01-20T07:21:22.888Z,95.85
2019-01-20T07:23:53.484Z,95.40
2019-01-20T07:26:24.020Z,95.47
2019-01-20T07:28:54.424Z,94.97
2019-01-20T07:31:24.975Z,94.85
2019-01-20T07:33:55.363Z,94.64
2019-01-20T07:36:25.992Z,94.08
2019-01-20T07:38:56.548Z,94.17
2019-01-20T07:41:27.906Z,94.66
2019-01-20T07:43:58.234Z,93.96
2019-01-20T07:46:28.751Z,93.37
2019-01-20T07:48:59.095Z,93.10
2019-01-20T07:51:29.559Z,93.23
2019-01-20T07:54:00.035Z,93.12
2019-01-20T07:56:30.476Z,93.17
2019-01-20T07:59:00.815Z,92.68
2019-01-20T08:01:31.178Z,92.83
2019-01-20T08:04:01.603Z,92.57
2019-01-20T08:06:32.029Z,92.52
2019-01-20T08:09:02.533Z,92.10
2019-01-20T08:11:32.883Z,92.40
2019-01-20T08:14:03.201Z,91.26
2019-01-20T08:16:33.636Z,91.29
2019-01-20T08:19:04.081Z,90.94
2019-01-20T08:21:34.404Z,90.77
2019-01-20T08:24:04.854Z,91.09
2019-01-20T08:26:35.149Z,91.68
2019-01-20T08:29:06.609Z,90.90
2019-01-20T08:31:38.963Z,90.31
2019-01-20T08:34:09.202Z,89.88
2019-01-20T08:36:39.475Z,89.79
2019-01-20T08:39:10.950Z,89.43
2019-01-20T08:41:41.393Z,89.39
2019-01-20T08:44:14.792Z,88.83
2019-01-20T08:47:31.768Z,89.03
2019-01-20T08:50:02.081Z,88.18
2019-01-20T08:52:32.311Z,88.27
2019-01-20T08:55:02.873Z,87.82
2019-01-20T08:57:33.311Z,88.11
2019-01-20T09:00:03.815Z,87.86
2019-01-20T09:02:34.672Z,87.40
2019-01-20T09:05:05.652Z,87.25
2019-01-20T09:07:36.171Z,86.47
2019-01-20T09:10:14.912Z,86.37
2019-01-20T09:12:45.539Z,86.65
2019-01-20T09:15:16.120Z,85.88
2019-01-20T09:17:46.607Z,85.92
2019-01-20T09:20:18.246Z,86.06
2019-01-20T09:22:48.699Z,85.04
2019-01-20T09:25:19.303Z,85.59
2019-01-20T09:27:49.662Z,84.65
2019-01-20T09:30:21.804Z,87.48
2019-01-20T09:32:52.230Z,84.57
2019-01-20T09:35:22.847Z,84.51
2019-01-20T09:37:53.923Z,83.47
2019-01-20T09:40:24.366Z,82.89
2019-01-20T09:42:54.691Z,82.23
2019-01-20T09:45:29.790Z,81.96
2019-01-20T09:48:00.861Z,81.33
2019-01-20T09:50:31.263Z,82.47
2019-01-20T09:53:01.767Z,82.53
2019-01-20T09:55:32.182Z,82.27
2019-01-20T09:58:02.934Z,82.85
2019-01-20T10:00:34.189Z,82.30
2019-01-20T10:03:04.684Z,81.19
2019-01-20T10:05:35.453Z,81.99
2019-01-20T10:08:06.357Z,81.63
2019-01-20T10:10:36.928Z,81.95
2019-01-20T10:13:07.403Z,81.24
2019-01-20T10:15:37.947Z,81.96
2019-01-20T10:18:08.754Z,81.64
2019-01-20T10:20:39.334Z,81.63
2019-01-20T10:23:09.951Z,81.05
2019-01-20T10:25:40.547Z,81.01
2019-01-20T10:28:14.662Z,81.64
2019-01-20T10:30:45.195Z,81.13
2019-01-20T10:33:15.639Z,81.37
2019-01-20T10:35:51.326Z,80.65
2019-01-20T10:38:21.845Z,80.41
2019-01-20T10:40:52.332Z,80.41
2019-01-20T10:43:22.789Z,81.09
2019-01-20T10:45:53.296Z,81.33
2019-01-20T10:48:23.856Z,79.53
2019-01-20T10:50:54.302Z,80.66
2019-01-20T10:53:24.884Z,80.09
2019-01-20T10:55:55.281Z,79.11
2019-01-20T10:58:25.794Z,79.59
2019-01-20T11:00:56.190Z,78.02
2019-01-20T11:03:27.688Z,78.62
2019-01-20T11:05:58.073Z,78.62
2019-01-20T11:08:28.354Z,77.72
2019-01-20T11:10:58.742Z,78.05
2019-01-20T11:13:33.332Z,78.29
2019-01-20T11:16:03.758Z,77.89
2019-01-20T11:18:34.669Z,79.02
2019-01-20T11:21:05.301Z,78.26
2019-01-20T11:23:36.063Z,77.42
2019-01-20T11:26:06.808Z,77.11
2019-01-20T11:28:37.315Z,76.31
2019-01-20T11:31:07.713Z,75.99
2019-01-20T11:33:38.158Z,76.73
2019-01-20T11:36:08.565Z,77.54
2019-01-20T11:38:39.098Z,76.94
2019-01-20T11:41:09.789Z,77.54
2019-01-20T11:43:40.130Z,76.61
2019-01-20T11:46:10.664Z,76.25
2019-01-20T11:48:41.060Z,76.28
2019-01-20T11:51:11.559Z,75.97
2019-01-20T11:53:42.091Z,76.37
2019-01-20T11:56:12.683Z,75.60
2019-01-20T11:58:43.058Z,76.67
2019-01-20T12:01:13.401Z,76.89
2019-01-20T12:03:43.948Z,75.55
2019-01-20T12:06:14.434Z,75.33
2019-01-20T12:08:45.043Z,77.89
2019-01-20T12:11:15.636Z,77.30
2019-01-20T12:13:46.322Z,76.66
2019-01-20T12:16:16.762Z,76.06
2019-01-20T12:18:47.231Z,76.21
2019-01-20T12:21:17.755Z,74.81
2019-01-20T12:23:47.989Z,75.65
2019-01-20T12:26:18.297Z,75.61
2019-01-20T12:28:49.700Z,75.82
2019-01-20T12:31:23.593Z,78.23
2019-01-20T12:33:54.098Z,75.95
2019-01-20T12:36:24.533Z,75.97
2019-01-20T12:38:54.983Z,76.14
2019-01-20T12:41:25.455Z,75.72
2019-01-20T12:43:55.900Z,76.46
2019-01-20T12:46:26.448Z,75.66
2019-01-20T12:48:56.962Z,75.04
2019-01-20T12:51:28.623Z,75.96
2019-01-20T12:53:59.222Z,75.99
2019-01-20T12:56:29.738Z,74.87
2019-01-20T12:59:00.128Z,75.38
2019-01-20T13:01:30.631Z,75.24
2019-01-20T13:04:01.110Z,74.58
2019-01-20T13:06:31.588Z,74.43
2019-01-20T13:09:01.975Z,73.95
2019-01-20T13:11:32.445Z,73.57
2019-01-20T13:14:02.910Z,73.35
2019-01-20T13:16:33.337Z,73.58
2019-01-20T13:19:03.675Z,73.73
2019-01-20T13:21:34.163Z,72.79
2019-01-20T13:24:04.839Z,72.13
2019-01-20T13:26:35.355Z,73.12
2019-01-20T13:29:06.938Z,73.69
2019-01-20T13:31:37.358Z,72.88
2019-01-20T13:34:08.939Z,72.50
2019-01-20T13:36:39.429Z,72.39
2019-01-20T13:39:13.856Z,72.19
2019-01-20T13:41:44.327Z,72.89
2019-01-20T13:44:15.809Z,72.71
2019-01-20T13:46:46.213Z,71.97
2019-01-20T13:49:17.536Z,72.41
2019-01-20T13:51:47.932Z,71.50
2019-01-20T13:54:21.844Z,71.66
2019-01-20T13:56:52.267Z,72.27
2019-01-20T13:59:22.668Z,71.81
2019-01-20T14:01:53.009Z,72.03
2019-01-20T14:04:23.490Z,72.55
2019-01-20T14:06:54.309Z,74.00
2019-01-20T14:09:24.709Z,72.81
2019-01-20T14:11:55.214Z,72.89
2019-01-20T14:14:25.633Z,72.80
2019-01-20T14:16:55.879Z,72.69
2019-01-20T14:19:26.308Z,75.30
2019-01-20T14:21:57.043Z,73.18
2019-01-20T14:24:27.543Z,73.24
2019-01-20T14:26:58.035Z,73.93
2019-01-20T14:29:28.581Z,73.63
2019-01-20T14:31:59.123Z,73.69
2019-01-20T14:34:29.748Z,74.33
2019-01-20T14:37:00.209Z,73.43
2019-01-20T14:39:30.719Z,74.24
2019-01-20T14:42:01.091Z,74.07
2019-01-20T14:44:31.620Z,74.15
2019-01-20T14:47:02.112Z,74.64
2019-01-20T14:49:32.541Z,75.50
2019-01-20T14:52:03.115Z,75.84
2019-01-20T14:54:34.718Z,75.60
2019-01-20T14:57:05.236Z,76.49
2019-01-20T14:59:35.753Z,77.22
2019-01-20T15:02:06.830Z,76.64
2019-01-20T15:04:37.366Z,77.15
2019-01-20T15:07:07.921Z,77.39
2019-01-20T15:09:38.547Z,77.09
2019-01-20T15:12:09.119Z,76.67
2019-01-20T15:14:40.665Z,76.51
2019-01-20T15:17:12.073Z,77.13
2019-01-20T15:19:43.621Z,80.18
2019-01-20T15:22:13.999Z,81.07
2019-01-20T15:24:44.474Z,82.27
2019-01-20T15:27:15.002Z,82.80
2019-01-20T15:29:45.408Z,83.47
2019-01-20T15:32:16.857Z,83.28
2019-01-20T15:34:47.382Z,83.49
2019-01-20T15:37:17.904Z,84.27
2019-01-20T15:39:48.464Z,84.47
2019-01-20T15:42:19.312Z,84.63
2019-01-20T15:44:50.916Z,84.98
2019-01-20T15:47:21.426Z,85.28
2019-01-20T15:49:51.959Z,85.61
2019-01-20T15:52:22.330Z,85.73
2019-01-20T15:54:52.836Z,86.37
2019-01-20T15:57:23.542Z,86.31
2019-01-20T15:59:54.145Z,85.86
2019-01-20T16:02:24.678Z,85.62
2019-01-20T16:04:55.172Z,86.22
2019-01-20T16:07:25.669Z,85.91
2019-01-20T16:09:56.076Z,85.82
2019-01-20T16:12:26.520Z,85.80
2019-01-20T16:14:56.965Z,86.19
2019-01-20T16:17:27.378Z,85.67
2019-01-20T16:19:58.062Z,85.82
2019-01-20T16:22:28.473Z,85.53
2019-01-20T16:24:58.908Z,86.04
2019-01-20T16:27:29.387Z,86.51
2019-01-20T16:30:00.264Z,86.70
2019-01-20T16:32:31.434Z,87.10
2019-01-20T16:35:01.969Z,87.87
2019-01-20T16:37:32.385Z,87.78
2019-01-20T16:40:02.783Z,87.25
2019-01-20T16:42:33.209Z,87.60
2019-01-20T16:45:03.702Z,87.88
2019-01-20T16:47:35.109Z,87.74
2019-01-20T16:50:06.816Z,87.77
2019-01-20T16:52:37.459Z,88.09
2019-01-20T16:55:08.262Z,88.32
2019-01-20T16:57:38.683Z,88.55
2019-01-20T17:00:17.973Z,88.24
2019-01-20T17:02:48.565Z,88.23
2019-01-20T17:05:19.092Z,88.36
2019-01-20T17:07:52.927Z,88.59
2019-01-20T17:10:27.027Z,89.00
2019-01-20T17:12:57.729Z,88.77
2019-01-20T17:15:39.415Z,88.39
2019-01-20T17:18:07.357Z,88.65
2019-01-20T17:20:38.618Z,88.25
2019-01-20T17:23:09.101Z,88.48
2019-01-20T17:25:39.571Z,88.39
2019-01-20T17:28:09.996Z,88.99
2019-01-20T17:30:41.079Z,88.91
2019-01-20T17:33:12.989Z,89.10
2019-01-20T17:35:43.440Z,89.48
2019-01-20T17:38:13.867Z,89.86
2019-01-20T17:40:44.274Z,89.89
2019-01-20T17:43:15.676Z,89.89
2019-01-20T17:45:48.553Z,90.29
2019-01-20T17:48:18.682Z,90.44
2019-01-20T17:50:49.284Z,90.32
2019-01-20T17:53:19.748Z,90.47
2019-01-20T17:55:50.216Z,90.29
2019-01-20T17:58:20.703Z,90.16
2019-01-20T18:00:55.032Z,90.23
2019-01-20T18:03:25.597Z,90.13
2019-01-20T18:05:56.035Z,90.30
2019-01-20T18:08:26.606Z,90.61
2019-01-20T18:10:57.159Z,90.46
2019-01-20T18:13:27.691Z,90.18
2019-01-20T18:15:58.101Z,89.72
2019-01-20T18:18:28.748Z,90.34
2019-01-20T18:20:59.067Z,90.35
2019-01-20T18:23:29.524Z,90.03
2019-01-20T18:26:00.010Z,90.33
2019-01-20T18:28:30.547Z,90.30
2019-01-20T18:31:01.084Z,90.56
2019-01-20T18:33:31.641Z,90.57
2019-01-20T18:36:02.139Z,89.92
2019-01-20T18:38:33.305Z,90.66
2019-01-20T18:41:03.723Z,91.30
2019-01-20T18:43:38.617Z,91.24
2019-01-20T18:46:11.470Z,90.15
2019-01-20T18:48:41.999Z,90.14
2019-01-20T18:51:12.406Z,90.04
2019-01-20T18:53:42.935Z,89.97
2019-01-20T18:56:13.358Z,89.88
2019-01-20T18:58:44.023Z,89.65
2019-01-20T19:01:15.752Z,90.08
2019-01-20T19:03:46.480Z,89.67
2019-01-20T19:06:16.939Z,89.66
2019-01-20T19:08:47.690Z,90.07
2019-01-20T19:11:18.309Z,90.40
2019-01-20T19:13:49.110Z,90.59
2019-01-20T19:16:24.482Z,90.91
2019-01-20T19:18:54.965Z,90.84
2019-01-20T19:21:35.466Z,91.01
2019-01-20T19:24:06.335Z,91.21
2019-01-20T19:26:36.709Z,91.37
2019-01-20T19:29:07.351Z,91.63
2019-01-20T19:31:37.762Z,91.71
2019-01-20T19:34:08.331Z,92.24
2019-01-20T19:36:38.797Z,92.04
2019-01-20T19:39:11.885Z,92.37
2019-01-20T19:41:42.216Z,92.53
2019-01-20T19:44:12.842Z,92.45
2019-01-20T19:46:43.412Z,92.01
2019-01-20T19:49:13.942Z,92.13
2019-01-20T19:51:44.487Z,92.12
2019-01-20T19:54:14.942Z,92.62
2019-01-20T19:56:45.417Z,92.57
2019-01-20T19:59:17.791Z,92.86
2019-01-20T20:01:48.155Z,92.81
2019-01-20T20:04:19.758Z,92.81
2019-01-20T20:06:50.153Z,92.87
2019-01-20T20:09:20.891Z,93.14
2019-01-20T20:11:51.314Z,92.77
2019-01-20T20:14:21.757Z,93.21
2019-01-20T20:16:52.297Z,93.40
2019-01-20T20:19:22.748Z,93.70
2019-01-20T20:21:53.148Z,93.60
2019-01-20T20:24:25.574Z,93.54
2019-01-20T20:26:55.690Z,93.36
2019-01-20T20:29:26.306Z,93.51
2019-01-20T20:31:56.806Z,93.78
2019-01-20T20:34:27.467Z,93.91
2019-01-20T20:36:57.910Z,93.77
2019-01-20T20:39:28.413Z,93.84
2019-01-20T20:42:02.300Z,94.10
2019-01-20T20:44:32.969Z,94.27
2019-01-20T20:47:03.361Z,94.16
2019-01-20T20:49:33.789Z,94.08
2019-01-20T20:52:04.425Z,93.39
2019-01-20T20:54:35.840Z,93.38
2019-01-20T20:57:07.164Z,93.93
2019-01-20T20:59:37.685Z,94.82
2019-01-20T21:02:08.354Z,95.15
2019-01-20T21:04:38.892Z,94.86
2019-01-20T21:07:09.559Z,94.48
2019-01-20T21:09:40.103Z,94.68
2019-01-20T21:12:10.735Z,94.68
2019-01-20T21:14:41.327Z,94.85
2019-01-20T21:17:11.793Z,94.70
2019-01-20T21:19:42.376Z,95.21
2019-01-20T21:22:12.841Z,95.00
2019-01-20T21:24:43.301Z,94.71
2019-01-20T21:27:13.799Z,94.81
2019-01-20T21:29:44.116Z,94.34
2019-01-20T21:32:14.608Z,94.15
2019-01-20T21:34:45.098Z,94.42
2019-01-20T21:37:15.745Z,94.84
2019-01-20T21:39:46.131Z,94.81
2019-01-20T21:42:16.646Z,95.11
2019-01-20T21:44:47.041Z,95.05
2019-01-20T21:47:17.436Z,94.69
2019-01-20T21:49:47.936Z,94.54
2019-01-20T21:52:18.456Z,94.82
2019-01-20T21:54:48.775Z,94.22
2019-01-20T21:57:19.312Z,94.72
2019-01-20T21:59:49.957Z,94.86
2019-01-20T22:02:20.590Z,94.32
2019-01-20T22:04:51.349Z,94.57
2019-01-20T22:07:21.822Z,94.31
2019-01-20T22:09:52.279Z,94.65
2019-01-20T22:12:22.806Z,94.21
2019-01-20T22:14:53.270Z,94.29
2019-01-20T22:17:23.758Z,94.54
2019-01-20T22:19:54.249Z,95.37
2019-01-20T22:22:24.757Z,95.55
2019-01-20T22:24:56.322Z,95.46
2019-01-20T22:27:26.697Z,95.75
2019-01-20T22:29:57.227Z,95.61
2019-01-20T22:32:27.750Z,95.83
2019-01-20T22:34:58.312Z,95.23
2019-01-20T22:37:28.809Z,95.66
2019-01-20T22:39:59.191Z,95.74
2019-01-20T22:42:29.577Z,95.66
2019-01-20T22:45:00.184Z,95.69
2019-01-20T22:47:30.519Z,95.77
2019-01-20T22:50:01.034Z,95.71
2019-01-20T22:52:31.431Z,95.31
2019-01-20T22:55:01.904Z,95.25
2019-01-20T22:57:32.294Z,95.33
2019-01-20T23:00:02.682Z,95.35
2019-01-20T23:02:33.382Z,95.86
2019-01-20T23:05:03.810Z,95.26
2019-01-20T23:07:34.899Z,95.34
2019-01-20T23:10:06.512Z,95.68
2019-01-20T23:12:37.127Z,95.56
2019-01-20T23:15:08.990Z,95.75
2019-01-20T23:17:39.363Z,96.07
2019-01-20T23:20:14.639Z,95.93
2019-01-20T23:22:45.361Z,95.97
2019-01-20T23:25:18.658Z,95.85
2019-01-20T23:27:51.648Z,96.32
2019-01-20T23:30:22.483Z,96.09
2019-01-20T23:32:52.980Z,96.03
2019-01-20T23:35:23.446Z,95.92
2019-01-20T23:37:53.894Z,96.30
2019-01-20T23:40:24.413Z,96.56
2019-01-20T23:42:54.885Z,96.72
2019-01-20T23:45:25.340Z,97.12
2019-01-20T23:47:55.840Z,97.50
2019-01-20T23:50:26.332Z,97.51
2019-01-20T23:52:56.744Z,97.62
2019-01-20T23:55:27.193Z,97.68
2019-01-20T23:57:57.616Z,98.12
